Time;durP1;ratioP1;P1;durP2;ratioP2;P2;SDS_P1;SDS_P2;PMS_P1;PMS_P2;Temp;Humidity;BMP_temperature;BMP_pressure;BME280_temperature;BME280_humidity;BME280_pressure;Samples;Min_cycle;Max_cycle;Signal;HPM_P1;HPM_P2
2024/02/11 00:01:41;;;;;;;16.83;10.00;;;9.10;99.90;;;;;;4190627;28;20623;-74
2024/02/11 00:03:43;;;;;;;17.77;10.33;;;9.10;99.90;;;;;;4188301;28;20220;-75
2024/02/11 00:05:45;;;;;;;18.63;10.27;;;9.10;99.90;;;;;;4189307;28;20200;-76
2024/02/11 00:07:49;;;;;;;18.13;10.60;;;9.10;99.90;;;;;;4184864;28;20234;-75
2024/02/11 00:09:51;;;;;;;18.00;9.90;;;9.10;99.90;;;;;;4183979;28;20208;-75
2024/02/11 00:11:53;;;;;;;17.27;10.63;;;9.10;99.90;;;;;;4182447;28;20313;-75
2024/02/11 00:13:55;;;;;;;17.10;9.83;;;9.10;99.90;;;;;;4183206;28;20259;-76
2024/02/11 00:15:56;;;;;;;14.00;9.17;;;9.10;99.90;;;;;;4184003;28;20213;-75
2024/02/11 00:17:59;;;;;;;17.30;9.83;;;9.10;99.90;;;;;;4182302;28;20211;-75
2024/02/11 00:20:06;;;;;;;15.90;9.83;;;9.10;99.90;;;;;;4183343;28;20295;-75
2024/02/11 00:22:09;;;;;;;16.90;9.53;;;9.10;99.90;;;;;;4187463;28;20225;-75
2024/02/11 00:24:11;;;;;;;16.70;9.60;;;9.10;99.90;;;;;;4185321;28;20626;-76
2024/02/11 00:26:13;;;;;;;16.60;9.20;;;9.10;99.90;;;;;;4187620;28;20205;-75
2024/02/11 00:28:14;;;;;;;16.53;9.13;;;9.10;99.90;;;;;;4185671;28;20243;-75
2024/02/11 00:30:17;;;;;;;15.73;9.00;;;9.10;99.90;;;;;;4188546;28;20229;-75
2024/02/11 00:32:19;;;;;;;16.73;9.00;;;9.10;99.90;;;;;;4186717;28;20206;-75
2024/02/11 00:34:22;;;;;;;16.23;9.10;;;9.10;99.90;;;;;;4183055;28;20285;-76
2024/02/11 00:36:23;;;;;;;14.97;9.07;;;9.00;99.90;;;;;;4183600;28;20241;-75
2024/02/11 00:38:25;;;;;;;16.47;9.30;;;9.00;99.90;;;;;;4187866;28;20207;-76
2024/02/11 00:40:27;;;;;;;18.00;9.33;;;9.00;99.90;;;;;;4186262;28;20213;-76
2024/02/11 00:42:30;;;;;;;15.90;9.27;;;9.00;99.90;;;;;;4185826;28;20225;-76
2024/02/11 00:44:31;;;;;;;14.87;8.63;;;9.00;99.90;;;;;;4185640;28;20258;-75
2024/02/11 00:46:34;;;;;;;14.67;8.63;;;9.00;99.90;;;;;;4183835;28;20688;-76
2024/02/11 00:48:36;;;;;;;17.17;9.40;;;9.00;99.90;;;;;;4184203;28;20228;-76
2024/02/11 00:50:40;;;;;;;17.20;8.90;;;9.00;99.90;;;;;;4186709;28;20307;-75
2024/02/11 00:52:44;;;;;;;17.07;9.20;;;9.00;99.90;;;;;;4187914;28;20204;-75
2024/02/11 00:54:45;;;;;;;15.80;9.00;;;9.00;99.90;;;;;;4186648;28;20296;-74
2024/02/11 00:56:54;;;;;;;16.07;8.90;;;9.00;99.90;;;;;;4185963;28;20803;-75
2024/02/11 00:58:56;;;;;;;13.63;8.83;;;9.00;99.90;;;;;;4183978;28;20267;-76
2024/02/11 01:00:58;;;;;;;16.27;9.60;;;9.00;99.90;;;;;;4186249;28;20229;-75
2024/02/11 01:03:00;;;;;;;16.67;9.90;;;9.00;99.90;;;;;;4189201;28;20198;-76
2024/02/11 01:05:03;;;;;;;17.13;9.60;;;9.00;99.90;;;;;;4184754;28;20611;-75
2024/02/11 01:07:06;;;;;;;17.93;9.07;;;9.00;99.90;;;;;;4185266;28;20256;-75
2024/02/11 01:09:07;;;;;;;14.97;8.60;;;9.00;99.90;;;;;;4184454;28;20205;-76
2024/02/11 01:11:09;;;;;;;14.03;8.50;;;9.00;99.90;;;;;;4182844;28;20294;-75
2024/02/11 01:13:13;;;;;;;13.27;7.87;;;9.00;99.90;;;;;;4185119;28;20205;-75
2024/02/11 01:15:17;;;;;;;15.23;9.50;;;9.00;99.90;;;;;;4184791;28;20217;-75
2024/02/11 01:17:19;;;;;;;16.87;9.30;;;9.00;99.90;;;;;;4184857;28;20228;-75
2024/02/11 01:19:21;;;;;;;14.03;8.13;;;9.00;99.90;;;;;;4184307;28;20567;-75
2024/02/11 01:21:23;;;;;;;18.07;8.67;;;9.00;99.90;;;;;;4181947;28;20238;-75
2024/02/11 01:23:28;;;;;;;13.73;8.30;;;9.00;99.90;;;;;;4186019;28;20211;-75
2024/02/11 01:25:29;;;;;;;18.13;8.60;;;9.00;99.90;;;;;;4185585;28;20208;-75
2024/02/11 01:27:33;;;;;;;16.37;8.20;;;9.00;99.90;;;;;;4187670;28;20643;-75
2024/02/11 01:29:36;;;;;;;14.80;8.87;;;8.90;99.90;;;;;;4186955;28;20684;-74
2024/02/11 01:31:38;;;;;;;13.40;8.30;;;8.90;99.90;;;;;;4185238;28;20907;-75
2024/02/11 01:33:40;;;;;;;13.77;8.33;;;9.00;99.90;;;;;;4180929;28;20705;-74
2024/02/11 01:35:42;;;;;;;16.97;8.70;;;9.00;99.90;;;;;;4187100;28;20200;-75
2024/02/11 01:37:43;;;;;;;15.67;8.60;;;9.00;99.90;;;;;;4185210;28;20299;-75
2024/02/11 01:39:49;;;;;;;13.30;8.30;;;9.00;99.90;;;;;;4188034;28;20212;-75
2024/02/11 01:41:51;;;;;;;15.00;8.43;;;9.00;99.90;;;;;;4182739;28;20263;-76
2024/02/11 01:43:52;;;;;;;13.30;8.23;;;9.00;99.90;;;;;;4185072;28;20228;-76
2024/02/11 01:45:54;;;;;;;12.77;8.17;;;9.00;99.90;;;;;;4186434;28;20262;-75
2024/02/11 01:47:56;;;;;;;11.30;7.27;;;9.00;99.90;;;;;;4180940;28;20205;-76
2024/02/11 01:49:58;;;;;;;13.53;8.27;;;9.00;99.90;;;;;;4184316;28;20225;-76
2024/02/11 01:52:03;;;;;;;12.83;7.60;;;9.00;99.90;;;;;;4181687;28;20216;-75
2024/02/11 01:54:06;;;;;;;12.63;7.73;;;9.00;99.90;;;;;;4188195;28;20245;-76
2024/02/11 01:56:10;;;;;;;11.30;7.10;;;9.00;99.90;;;;;;4182965;28;20205;-75
2024/02/11 01:58:14;;;;;;;12.03;7.27;;;8.90;99.90;;;;;;4183536;28;20205;-76
2024/02/11 02:00:17;;;;;;;11.50;7.30;;;8.90;99.90;;;;;;4178044;28;20203;-73
2024/02/11 02:02:20;;;;;;;14.80;8.20;;;8.90;99.90;;;;;;4187425;28;20623;-76
2024/02/11 02:04:31;;;;;;;11.47;7.10;;;8.90;99.90;;;;;;4187198;28;20213;-75
2024/02/11 02:06:34;;;;;;;14.33;8.20;;;8.90;99.90;;;;;;4183611;28;20266;-75
2024/02/11 02:08:39;;;;;;;13.17;8.27;;;8.90;99.90;;;;;;4185775;28;20605;-75
2024/02/11 02:10:41;;;;;;;13.33;7.60;;;8.90;99.90;;;;;;4186473;28;20331;-75
2024/02/11 02:12:46;;;;;;;14.83;8.30;;;8.90;99.90;;;;;;4184329;28;20212;-75
2024/02/11 02:14:49;;;;;;;12.40;7.73;;;8.90;99.90;;;;;;4183541;28;20230;-75
2024/02/11 02:16:51;;;;;;;15.73;7.80;;;8.90;99.90;;;;;;4184745;28;20609;-75
2024/02/11 02:18:53;;;;;;;13.83;7.73;;;8.90;99.90;;;;;;4184283;28;20244;-75
2024/02/11 02:20:55;;;;;;;12.13;7.47;;;8.90;99.90;;;;;;4184410;28;20320;-75
2024/02/11 02:22:59;;;;;;;15.13;7.83;;;8.80;99.90;;;;;;4187802;28;20735;-74
2024/02/11 02:24:59;;;;;;;12.60;7.13;;;8.80;99.90;;;;;;4185568;28;20214;-74
2024/02/11 02:27:01;;;;;;;13.50;7.87;;;8.80;99.90;;;;;;4183559;28;20805;-75
2024/02/11 02:29:03;;;;;;;13.23;7.43;;;8.80;99.90;;;;;;4187084;28;20213;-74
2024/02/11 02:31:07;;;;;;;12.70;7.73;;;8.80;99.90;;;;;;4178263;28;21252;-75
2024/02/11 02:33:09;;;;;;;14.40;8.17;;;8.80;99.90;;;;;;4185754;28;20621;-74
2024/02/11 02:35:11;;;;;;;13.40;7.57;;;8.80;99.90;;;;;;4183203;28;20206;-74
2024/02/11 02:37:13;;;;;;;14.80;7.17;;;8.80;99.90;;;;;;4179258;28;20224;-74
2024/02/11 02:39:17;;;;;;;11.97;7.37;;;8.70;99.90;;;;;;4178970;28;20206;-75
2024/02/11 02:41:19;;;;;;;10.93;7.37;;;8.70;99.90;;;;;;4194679;28;20220;-75
2024/02/11 02:43:20;;;;;;;10.83;6.90;;;8.70;99.90;;;;;;4182843;28;20239;-76
2024/02/11 02:45:22;;;;;;;12.57;7.37;;;8.70;99.90;;;;;;4185932;28;20579;-75
2024/02/11 02:47:23;;;;;;;13.50;7.60;;;8.70;99.90;;;;;;4177745;28;20669;-75
2024/02/11 02:49:26;;;;;;;12.50;7.27;;;8.70;99.90;;;;;;4185139;28;20207;-75
2024/02/11 02:51:28;;;;;;;11.17;6.93;;;8.70;99.90;;;;;;4189861;28;20240;-76
2024/02/11 02:53:30;;;;;;;12.13;7.13;;;8.60;99.90;;;;;;4183615;28;20583;-75
2024/02/11 02:55:34;;;;;;;14.37;7.77;;;8.60;99.90;;;;;;4189454;28;20729;-75
2024/02/11 02:57:37;;;;;;;12.27;7.50;;;8.60;99.90;;;;;;4191532;28;20205;-75
2024/02/11 02:59:39;;;;;;;11.47;6.77;;;8.60;99.90;;;;;;4186719;28;20231;-75
2024/02/11 03:01:42;;;;;;;11.73;7.03;;;8.80;99.90;;;;;;4181220;28;20596;-75
2024/02/11 03:03:46;;;;;;;13.53;7.77;;;8.60;99.90;;;;;;4181314;28;20261;-75
2024/02/11 03:05:50;;;;;;;13.43;6.93;;;8.50;99.90;;;;;;4184001;28;20796;-76
2024/02/11 03:07:53;;;;;;;12.40;7.30;;;8.50;99.90;;;;;;4187377;28;20627;-75
2024/02/11 03:09:55;;;;;;;13.70;7.27;;;8.50;99.90;;;;;;4182501;28;20206;-75
2024/02/11 03:11:58;;;;;;;12.97;7.83;;;8.50;99.90;;;;;;4184714;28;20240;-75
2024/02/11 03:14:00;;;;;;;15.23;8.00;;;8.50;99.90;;;;;;4189186;28;20223;-75
2024/02/11 03:16:02;;;;;;;15.57;8.20;;;8.50;99.90;;;;;;4185041;28;20287;-76
2024/02/11 03:18:05;;;;;;;15.33;8.10;;;8.50;99.90;;;;;;4184079;28;20209;-75
2024/02/11 03:20:10;;;;;;;14.07;8.67;;;8.50;99.90;;;;;;4192373;28;20284;-75
2024/02/11 03:22:13;;;;;;;15.47;8.27;;;8.50;99.90;;;;;;4183293;28;20220;-75
2024/02/11 03:24:14;;;;;;;15.00;8.63;;;8.40;99.90;;;;;;4184643;28;20235;-75
2024/02/11 03:26:15;;;;;;;17.40;8.90;;;8.50;99.90;;;;;;4187860;28;20293;-75
2024/02/11 03:28:19;;;;;;;14.63;8.53;;;8.40;99.90;;;;;;4187625;28;20856;-75
2024/02/11 03:30:21;;;;;;;18.87;10.30;;;8.40;99.90;;;;;;4183187;28;20209;-75
2024/02/11 03:32:23;;;;;;;20.73;11.90;;;8.40;99.90;;;;;;4188602;28;20235;-75
2024/02/11 03:34:25;;;;;;;22.03;12.17;;;8.40;99.90;;;;;;4185295;28;20292;-75
2024/02/11 03:36:27;;;;;;;25.03;13.67;;;8.40;99.90;;;;;;4183039;28;20208;-75
2024/02/11 03:38:29;;;;;;;26.27;14.03;;;8.40;99.90;;;;;;4183759;28;20287;-76
2024/02/11 03:40:30;;;;;;;26.27;14.37;;;8.40;99.90;;;;;;4187228;28;20190;-75
2024/02/11 03:42:32;;;;;;;27.33;13.73;;;8.40;99.90;;;;;;4187475;28;20247;-75
2024/02/11 03:44:34;;;;;;;24.13;14.00;;;8.40;99.90;;;;;;4184617;28;20260;-75
2024/02/11 03:46:36;;;;;;;25.30;14.17;;;8.30;99.90;;;;;;4185321;28;20733;-75
2024/02/11 03:48:38;;;;;;;25.60;15.07;;;8.50;99.90;;;;;;4190041;28;20656;-75
2024/02/11 03:50:40;;;;;;;25.07;14.90;;;8.30;99.90;;;;;;4192628;28;20241;-75
2024/02/11 03:52:42;;;;;;;28.57;15.67;;;8.40;99.90;;;;;;4185287;28;20223;-74
2024/02/11 03:54:43;;;;;;;30.17;15.73;;;8.30;99.90;;;;;;4183931;28;20269;-77
2024/02/11 03:56:45;;;;;;;32.07;17.03;;;8.30;99.90;;;;;;4182702;28;21185;-77
2024/02/11 03:58:46;;;;;;;30.33;15.50;;;8.30;99.90;;;;;;4187633;28;20590;-77
2024/02/11 04:00:49;;;;;;;33.33;17.67;;;8.30;99.90;;;;;;4184055;28;20223;-77
2024/02/11 04:02:52;;;;;;;30.30;16.10;;;8.30;99.90;;;;;;4185821;28;20197;-77
2024/02/11 04:04:54;;;;;;;33.77;17.60;;;8.30;99.90;;;;;;4188367;28;20212;-77
2024/02/11 04:06:56;;;;;;;37.23;18.87;;;8.30;99.90;;;;;;4182663;28;20210;-77
2024/02/11 04:08:57;;;;;;;34.90;18.13;;;8.20;99.90;;;;;;4185771;28;20646;-77
2024/02/11 04:10:59;;;;;;;35.03;18.23;;;8.30;99.90;;;;;;4185175;28;20233;-77
2024/02/11 04:13:01;;;;;;;36.30;19.03;;;8.30;99.90;;;;;;4185376;28;20222;-76
2024/02/11 04:15:09;;;;;;;37.17;19.37;;;8.30;99.90;;;;;;4186174;28;20220;-77
2024/02/11 04:17:14;;;;;;;39.70;19.83;;;8.30;99.90;;;;;;4185645;28;20204;-77
2024/02/11 04:19:16;;;;;;;38.90;19.57;;;8.30;99.90;;;;;;4185050;28;20217;-77
2024/02/11 04:21:20;;;;;;;43.17;21.20;;;8.30;99.90;;;;;;4187384;28;20246;-77
2024/02/11 04:23:22;;;;;;;40.00;20.07;;;8.30;99.90;;;;;;4186599;28;20197;-77
2024/02/11 04:25:25;;;;;;;39.67;18.80;;;8.30;99.90;;;;;;4188389;28;20295;-77
2024/02/11 04:27:28;;;;;;;46.87;22.33;;;8.30;99.90;;;;;;4185818;28;20208;-76
2024/02/11 04:29:30;;;;;;;40.40;21.00;;;8.30;99.90;;;;;;4183131;28;20255;-77
2024/02/11 04:31:32;;;;;;;43.23;21.57;;;8.20;99.90;;;;;;4183010;28;20227;-77
2024/02/11 04:33:36;;;;;;;45.60;21.30;;;8.30;99.90;;;;;;4184205;28;20237;-77
2024/02/11 04:35:39;;;;;;;43.23;21.57;;;8.30;99.90;;;;;;4184662;28;20283;-77
2024/02/11 04:37:44;;;;;;;40.23;19.93;;;8.30;99.90;;;;;;4182753;28;20231;-77
2024/02/11 04:39:46;;;;;;;46.23;21.47;;;8.30;99.90;;;;;;4185722;28;20208;-77
2024/02/11 04:41:47;;;;;;;41.97;20.90;;;8.30;99.90;;;;;;4185073;28;20252;-77
2024/02/11 04:43:50;;;;;;;46.07;21.40;;;8.30;99.90;;;;;;4187435;28;20204;-75
2024/02/11 04:45:51;;;;;;;43.43;22.00;;;8.30;99.90;;;;;;4185573;28;20208;-76
2024/02/11 04:47:58;;;;;;;43.13;21.80;;;8.30;99.90;;;;;;4185047;28;20232;-77
2024/02/11 04:50:00;;;;;;;43.07;21.83;;;8.30;99.90;;;;;;4185055;28;20676;-77
2024/02/11 04:52:07;;;;;;;44.27;21.43;;;8.30;99.90;;;;;;4182686;28;20259;-77
2024/02/11 04:54:09;;;;;;;47.17;21.77;;;8.30;99.90;;;;;;4185381;28;20296;-77
2024/02/11 04:56:11;;;;;;;44.30;21.60;;;8.30;99.90;;;;;;4183932;28;20210;-75
2024/02/11 04:58:14;;;;;;;44.67;21.50;;;8.30;99.90;;;;;;4185987;28;20690;-77
2024/02/11 05:00:26;;;;;;;46.27;22.70;;;8.30;99.90;;;;;;4182428;28;20282;-75
2024/02/11 05:02:27;;;;;;;43.53;21.93;;;8.30;99.90;;;;;;4181064;28;20207;-75
2024/02/11 05:04:29;;;;;;;41.40;21.07;;;8.30;99.90;;;;;;4183997;28;20227;-74
2024/02/11 05:06:35;;;;;;;46.17;21.73;;;8.30;99.90;;;;;;4184220;28;20208;-76
2024/02/11 05:08:38;;;;;;;46.00;21.93;;;8.30;99.90;;;;;;4187202;28;20229;-77
2024/02/11 05:10:40;;;;;;;46.70;21.27;;;8.30;99.90;;;;;;4185535;28;20237;-76
2024/02/11 05:12:42;;;;;;;40.57;20.90;;;8.30;99.90;;;;;;4182875;28;20228;-75
2024/02/11 05:14:44;;;;;;;43.47;21.37;;;8.30;99.90;;;;;;4179179;28;20260;-77
2024/02/11 05:16:46;;;;;;;44.17;20.67;;;8.30;99.90;;;;;;4183265;28;20240;-76
2024/02/11 05:18:48;;;;;;;48.10;22.83;;;8.30;99.90;;;;;;4177991;28;20354;-76
2024/02/11 05:20:50;;;;;;;45.80;21.60;;;8.30;99.90;;;;;;4185774;28;20222;-76
2024/02/11 05:22:55;;;;;;;44.47;21.53;;;8.30;99.90;;;;;;4186557;28;20205;-77
2024/02/11 05:24:57;;;;;;;46.80;22.00;;;8.40;99.90;;;;;;4187046;28;20220;-76
2024/02/11 05:26:59;;;;;;;42.43;21.27;;;8.30;99.90;;;;;;4185691;28;20208;-76
2024/02/11 05:29:03;;;;;;;48.13;21.47;;;8.40;99.90;;;;;;4187936;28;20252;-76
2024/02/11 05:31:07;;;;;;;50.13;22.53;;;8.40;99.90;;;;;;4182950;28;20223;-76
2024/02/11 05:33:09;;;;;;;43.10;21.10;;;8.40;99.90;;;;;;4186926;28;20271;-76
2024/02/11 05:35:11;;;;;;;46.83;21.83;;;8.40;99.90;;;;;;4185865;28;20787;-76
2024/02/11 05:37:13;;;;;;;52.23;22.13;;;8.30;99.90;;;;;;4183487;28;20276;-76
2024/02/11 05:39:18;;;;;;;42.30;21.03;;;8.40;99.90;;;;;;4188692;28;20231;-77
2024/02/11 05:41:20;;;;;;;45.57;21.47;;;8.40;99.90;;;;;;4186370;28;20281;-76
2024/02/11 05:43:21;;;;;;;47.80;22.20;;;8.40;99.90;;;;;;4185269;28;20675;-75
2024/02/11 05:45:24;;;;;;;45.07;21.93;;;8.40;99.90;;;;;;4185976;28;20216;-76
2024/02/11 05:47:25;;;;;;;43.03;22.03;;;8.40;99.90;;;;;;4184903;28;20215;-77
2024/02/11 05:49:27;;;;;;;42.37;20.27;;;8.30;99.90;;;;;;4188078;28;20233;-76
2024/02/11 05:51:28;;;;;;;45.47;21.33;;;8.40;99.90;;;;;;4185448;28;20286;-76
2024/02/11 05:53:30;;;;;;;48.20;22.30;;;8.30;99.90;;;;;;4183812;28;20717;-76
2024/02/11 05:55:34;;;;;;;50.77;22.73;;;8.40;99.90;;;;;;4186963;28;20217;-76
2024/02/11 05:57:36;;;;;;;48.60;22.97;;;8.40;99.90;;;;;;4183018;28;20335;-76
2024/02/11 05:59:38;;;;;;;45.13;22.47;;;8.40;99.90;;;;;;4182699;28;20205;-76
2024/02/11 06:01:39;;;;;;;54.70;23.70;;;8.40;99.90;;;;;;4186266;28;20266;-77
2024/02/11 06:03:42;;;;;;;47.30;21.50;;;8.40;99.90;;;;;;4185916;28;20284;-76
2024/02/11 06:05:45;;;;;;;43.80;22.00;;;8.40;99.90;;;;;;4182606;28;20213;-76
2024/02/11 06:07:49;;;;;;;43.00;20.50;;;8.40;99.90;;;;;;4188678;28;20304;-76
2024/02/11 06:09:51;;;;;;;43.73;20.43;;;8.40;99.90;;;;;;4188219;28;21437;-76
2024/02/11 06:11:55;;;;;;;44.07;20.77;;;8.40;99.90;;;;;;4187041;28;20759;-76
2024/02/11 06:13:57;;;;;;;41.60;20.33;;;8.40;99.90;;;;;;4183203;28;20236;-76
2024/02/11 06:15:59;;;;;;;44.07;20.90;;;8.40;99.90;;;;;;4186444;28;20204;-76
2024/02/11 06:18:01;;;;;;;40.20;20.20;;;8.40;99.90;;;;;;4183854;28;20772;-76
2024/02/11 06:20:04;;;;;;;43.90;21.73;;;8.40;99.90;;;;;;4185923;28;20665;-76
2024/02/11 06:22:06;;;;;;;39.70;19.80;;;8.40;99.90;;;;;;4180663;28;20245;-76
2024/02/11 06:24:09;;;;;;;42.37;19.03;;;8.40;99.90;;;;;;4188201;28;20300;-75
2024/02/11 06:26:11;;;;;;;44.10;21.03;;;8.40;99.90;;;;;;4185397;28;20236;-76
2024/02/11 06:28:14;;;;;;;44.10;21.57;;;8.40;99.90;;;;;;4188602;28;20207;-76
2024/02/11 06:30:17;;;;;;;39.53;19.87;;;8.40;99.90;;;;;;4187454;28;20211;-76
2024/02/11 06:32:18;;;;;;;40.17;20.17;;;8.40;99.90;;;;;;4185722;28;20205;-76
2024/02/11 06:34:24;;;;;;;39.40;19.60;;;8.40;99.90;;;;;;4185449;28;20210;-77
2024/02/11 06:36:26;;;;;;;42.37;20.63;;;8.40;99.90;;;;;;4187264;28;20308;-76
2024/02/11 06:38:28;;;;;;;41.23;20.13;;;8.30;99.90;;;;;;4188328;28;20235;-76
2024/02/11 06:40:31;;;;;;;41.93;20.30;;;8.30;99.90;;;;;;4187358;28;20213;-76
2024/02/11 06:42:33;;;;;;;40.33;20.13;;;8.40;99.90;;;;;;4187856;28;20204;-75
2024/02/11 06:44:38;;;;;;;36.57;19.37;;;8.40;99.90;;;;;;4188350;28;20220;-76
2024/02/11 06:46:40;;;;;;;43.23;20.53;;;8.50;99.90;;;;;;4184409;28;20642;-76
2024/02/11 06:48:42;;;;;;;44.00;20.10;;;8.40;99.90;;;;;;4189604;28;20203;-77
2024/02/11 06:50:44;;;;;;;39.93;19.87;;;8.40;99.90;;;;;;4187886;28;20317;-76
2024/02/11 06:52:48;;;;;;;38.93;19.20;;;8.40;99.90;;;;;;4185786;28;20255;-76
2024/02/11 06:54:50;;;;;;;37.40;18.37;;;8.40;99.90;;;;;;4187923;28;20209;-77
2024/02/11 06:56:53;;;;;;;40.60;19.80;;;8.40;99.90;;;;;;4185184;28;20205;-76
2024/02/11 06:58:56;;;;;;;41.40;19.93;;;8.40;99.90;;;;;;4186453;28;20209;-77
2024/02/11 07:01:01;;;;;;;39.53;18.57;;;8.40;99.90;;;;;;4185082;28;20232;-77
2024/02/11 07:03:03;;;;;;;35.80;17.93;;;8.40;99.90;;;;;;4177558;28;20297;-77
2024/02/11 07:05:05;;;;;;;33.23;17.50;;;8.40;99.90;;;;;;4182640;28;20217;-76
2024/02/11 07:07:08;;;;;;;38.40;18.47;;;8.40;99.90;;;;;;4184297;28;20212;-77
2024/02/11 07:09:12;;;;;;;32.40;16.67;;;8.40;99.90;;;;;;4187306;28;20221;-77
2024/02/11 07:11:16;;;;;;;35.67;17.33;;;8.50;99.90;;;;;;4187971;28;20260;-76
2024/02/11 07:13:18;;;;;;;34.63;18.03;;;8.50;99.90;;;;;;4187666;28;20239;-77
2024/02/11 07:15:20;;;;;;;36.07;17.40;;;8.50;99.90;;;;;;4186178;28;20526;-77
2024/02/11 07:17:30;;;;;;;35.03;17.90;;;8.50;99.90;;;;;;4185916;28;20680;-75
2024/02/11 07:19:33;;;;;;;38.57;18.30;;;8.50;99.90;;;;;;4184915;28;20957;-76
2024/02/11 07:21:36;;;;;;;31.87;17.27;;;8.50;99.90;;;;;;4187304;28;20633;-77
2024/02/11 07:23:38;;;;;;;37.07;18.33;;;8.50;99.90;;;;;;4181490;28;20202;-76
2024/02/11 07:25:39;;;;;;;35.43;16.70;;;8.50;99.90;;;;;;4185512;28;20208;-76
2024/02/11 07:27:41;;;;;;;34.87;16.43;;;8.50;99.90;;;;;;4181039;28;20841;-77
2024/02/11 07:29:43;;;;;;;34.07;16.97;;;8.50;99.90;;;;;;4178669;28;20209;-75
2024/02/11 07:31:45;;;;;;;38.43;18.73;;;8.50;99.90;;;;;;4177154;28;20315;-75
2024/02/11 07:33:49;;;;;;;37.97;17.47;;;8.50;99.90;;;;;;4178057;28;20222;-76
2024/02/11 07:35:52;;;;;;;33.57;17.03;;;8.50;99.90;;;;;;4181100;28;20223;-76
2024/02/11 07:37:54;;;;;;;34.20;17.13;;;8.50;99.90;;;;;;4185022;28;20200;-76
2024/02/11 07:39:58;;;;;;;40.97;19.17;;;8.60;99.90;;;;;;4188025;28;20713;-76
2024/02/11 07:42:00;;;;;;;33.90;17.40;;;8.50;99.90;;;;;;4180692;28;20225;-76
2024/02/11 07:44:04;;;;;;;40.27;17.90;;;8.60;99.90;;;;;;4182014;28;20232;-75
2024/02/11 07:46:05;;;;;;;38.23;17.93;;;8.60;99.90;;;;;;4184719;28;20210;-75
2024/02/11 07:48:08;;;;;;;37.13;17.67;;;8.60;99.90;;;;;;4186116;28;20200;-76
2024/02/11 07:50:14;;;;;;;33.83;17.57;;;8.60;99.90;;;;;;4184980;28;20248;-75
2024/02/11 07:52:17;;;;;;;39.33;17.57;;;8.60;99.90;;;;;;4182982;28;20212;-76
2024/02/11 07:54:20;;;;;;;38.53;18.27;;;8.60;99.90;;;;;;4181182;28;20249;-76
2024/02/11 07:56:21;;;;;;;35.90;17.60;;;8.60;99.90;;;;;;4183724;28;20878;-76
2024/02/11 07:58:23;;;;;;;38.23;17.23;;;8.60;99.90;;;;;;4185040;28;20210;-75
2024/02/11 08:00:26;;;;;;;40.97;17.50;;;8.60;99.90;;;;;;4184781;28;20220;-75
2024/02/11 08:02:28;;;;;;;38.27;18.83;;;8.60;99.90;;;;;;4182597;28;20661;-74
2024/02/11 08:04:30;;;;;;;35.43;17.83;;;8.60;99.90;;;;;;4181371;28;20221;-76
2024/02/11 08:06:34;;;;;;;38.20;17.50;;;8.60;99.90;;;;;;4181783;28;20213;-75
2024/02/11 08:08:36;;;;;;;39.80;17.93;;;8.60;99.90;;;;;;4177908;28;20271;-75
2024/02/11 08:10:38;;;;;;;35.17;16.73;;;8.70;99.90;;;;;;4175851;28;20371;-75
2024/02/11 08:12:39;;;;;;;36.67;17.20;;;8.70;99.90;;;;;;4178172;28;20204;-74
2024/02/11 08:14:41;;;;;;;40.47;18.07;;;8.70;99.90;;;;;;4178577;28;20214;-75
2024/02/11 08:16:43;;;;;;;38.03;18.57;;;8.70;99.90;;;;;;4185097;28;20206;-75
2024/02/11 08:18:44;;;;;;;35.97;16.93;;;8.70;99.90;;;;;;4177806;28;20201;-75
2024/02/11 08:20:46;;;;;;;35.73;17.47;;;8.60;99.90;;;;;;4179861;28;20236;-75
2024/02/11 08:22:50;;;;;;;36.33;17.70;;;8.70;99.90;;;;;;4182108;28;20248;-75
2024/02/11 08:24:51;;;;;;;41.80;18.10;;;8.70;99.90;;;;;;4181401;28;20572;-75
2024/02/11 08:26:53;;;;;;;35.93;17.60;;;8.70;99.90;;;;;;4181242;28;20646;-75
2024/02/11 08:28:59;;;;;;;36.47;17.90;;;8.80;99.90;;;;;;4179196;28;20199;-75
2024/02/11 08:31:01;;;;;;;37.40;17.57;;;8.80;99.90;;;;;;4179803;28;20297;-75
2024/02/11 08:33:04;;;;;;;35.07;16.47;;;8.80;99.90;;;;;;4179647;28;20291;-75
2024/02/11 08:35:08;;;;;;;35.73;16.80;;;8.80;99.90;;;;;;4176019;28;20212;-76
2024/02/11 08:37:10;;;;;;;36.10;16.87;;;8.90;99.90;;;;;;4178312;28;20248;-75
2024/02/11 08:39:14;;;;;;;33.33;15.63;;;8.90;99.90;;;;;;4177168;28;20206;-76
2024/02/11 08:41:16;;;;;;;37.37;16.93;;;8.90;99.90;;;;;;4178711;28;20293;-75
2024/02/11 08:43:19;;;;;;;36.67;16.77;;;8.90;99.90;;;;;;4180250;28;20194;-76
2024/02/11 08:45:21;;;;;;;36.60;17.00;;;8.90;99.90;;;;;;4178790;28;20222;-82
2024/02/11 08:47:24;;;;;;;35.50;16.63;;;9.00;99.90;;;;;;4178068;28;20240;-77
2024/02/11 08:49:28;;;;;;;35.33;17.13;;;9.00;99.90;;;;;;4178584;28;20241;-77
2024/02/11 08:51:31;;;;;;;36.27;17.57;;;9.00;99.90;;;;;;4179415;28;20232;-77
2024/02/11 08:53:33;;;;;;;42.23;18.83;;;9.00;99.90;;;;;;4178564;28;21033;-77
2024/02/11 08:55:37;;;;;;;43.80;18.97;;;9.00;99.90;;;;;;4178291;28;20212;-76
2024/02/11 08:57:39;;;;;;;40.67;18.37;;;9.00;99.90;;;;;;4177744;28;20229;-76
2024/02/11 08:59:43;;;;;;;42.67;17.50;;;9.00;99.90;;;;;;4176366;28;20229;-76
2024/02/11 09:01:51;;;;;;;40.20;18.53;;;9.10;99.90;;;;;;4177561;28;20255;-76
2024/02/11 09:03:53;;;;;;;41.33;19.70;;;9.10;99.90;;;;;;4189321;28;20208;-76
2024/02/11 09:05:55;;;;;;;36.90;16.90;;;9.10;99.90;;;;;;4175882;28;20240;-76
2024/02/11 09:08:02;;;;;;;42.17;18.90;;;9.10;99.90;;;;;;4177595;28;20209;-76
2024/02/11 09:10:05;;;;;;;42.83;17.87;;;9.10;99.90;;;;;;4185313;28;20319;-77
2024/02/11 09:12:10;;;;;;;41.43;18.50;;;9.20;99.90;;;;;;4185264;28;20263;-80
2024/02/11 09:14:12;;;;;;;36.70;17.93;;;9.20;99.90;;;;;;4179351;28;20261;-79
2024/02/11 09:16:14;;;;;;;37.80;17.77;;;9.20;99.90;;;;;;4188160;28;20209;-79
2024/02/11 09:18:19;;;;;;;35.30;16.93;;;9.20;99.90;;;;;;4187954;28;20225;-81
2024/02/11 09:20:20;;;;;;;36.77;17.33;;;9.20;99.90;;;;;;4182412;28;20209;-77
2024/02/11 09:22:22;;;;;;;37.97;17.97;;;9.20;99.90;;;;;;4186331;28;20259;-77
2024/02/11 09:24:24;;;;;;;34.20;16.63;;;9.30;99.90;;;;;;4180738;28;20221;-76
2024/02/11 09:26:26;;;;;;;37.30;16.77;;;9.30;99.90;;;;;;4180907;28;20901;-78
2024/02/11 09:28:30;;;;;;;35.40;17.20;;;9.30;99.90;;;;;;4181738;28;20205;-77
2024/02/11 09:30:31;;;;;;;36.10;17.77;;;9.40;99.90;;;;;;4178764;28;20309;-78
2024/02/11 09:32:34;;;;;;;38.10;17.07;;;9.40;99.90;;;;;;4180184;28;20238;-77
2024/02/11 09:34:36;;;;;;;37.23;16.83;;;9.50;99.90;;;;;;4180176;28;20698;-77
2024/02/11 09:36:39;;;;;;;35.43;16.73;;;9.60;99.90;;;;;;4182986;28;20202;-77
2024/02/11 09:38:41;;;;;;;38.57;17.67;;;9.60;99.90;;;;;;4188190;28;20289;-76
2024/02/11 09:40:44;;;;;;;37.77;16.83;;;9.70;99.90;;;;;;4183648;28;20290;-76
2024/02/11 09:42:47;;;;;;;32.00;16.80;;;9.70;99.90;;;;;;4184440;28;20292;-76
2024/02/11 09:44:53;;;;;;;37.10;17.60;;;9.80;99.90;;;;;;4184383;28;20236;-78
2024/02/11 09:46:56;;;;;;;34.40;16.57;;;9.80;99.90;;;;;;4184455;28;20649;-76
2024/02/11 09:49:00;;;;;;;34.00;16.90;;;9.80;99.90;;;;;;4186000;28;20197;-76
2024/02/11 09:51:03;;;;;;;35.30;17.27;;;9.90;99.90;;;;;;4186507;28;20294;-76
2024/02/11 09:53:07;;;;;;;38.53;17.07;;;9.90;99.90;;;;;;4181272;28;20204;-76
2024/02/11 09:55:10;;;;;;;34.10;15.87;;;9.90;99.90;;;;;;4183756;28;20233;-75
2024/02/11 09:57:12;;;;;;;35.43;16.60;;;10.00;99.90;;;;;;4188351;28;20272;-76
2024/02/11 09:59:14;;;;;;;33.70;15.83;;;10.00;99.90;;;;;;4187009;28;20628;-77
2024/02/11 10:01:18;;;;;;;30.30;15.50;;;9.90;99.90;;;;;;4190945;28;20307;-76
2024/02/11 10:03:25;;;;;;;32.30;15.57;;;10.00;99.90;;;;;;4192183;28;20205;-76
2024/02/11 10:05:32;;;;;;;30.97;15.90;;;9.90;99.90;;;;;;4185553;28;20554;-77
2024/02/11 10:07:36;;;;;;;29.47;14.60;;;10.00;99.90;;;;;;4191461;28;20213;-76
2024/02/11 10:09:37;;;;;;;30.77;15.03;;;10.00;99.90;;;;;;4188475;28;20221;-76
2024/02/11 10:11:39;;;;;;;30.07;15.23;;;10.00;99.90;;;;;;4185841;28;20643;-77
2024/02/11 10:13:41;;;;;;;31.77;15.67;;;10.00;99.90;;;;;;4185379;28;20222;-77
2024/02/11 10:15:45;;;;;;;32.93;15.90;;;10.00;99.90;;;;;;4186670;28;20203;-77
2024/02/11 10:17:48;;;;;;;37.20;15.97;;;10.00;99.90;;;;;;4183461;28;20233;-77
2024/02/11 10:19:51;;;;;;;30.97;15.23;;;10.00;99.90;;;;;;4189130;28;20209;-76
2024/02/11 10:21:55;;;;;;;34.33;17.00;;;10.00;99.90;;;;;;4186074;28;20225;-77
2024/02/11 10:23:57;;;;;;;32.57;16.50;;;10.00;99.90;;;;;;4187110;28;20209;-77
2024/02/11 10:26:02;;;;;;;33.13;15.87;;;10.00;99.90;;;;;;4187958;28;20217;-76
2024/02/11 10:28:06;;;;;;;34.33;16.77;;;9.90;99.90;;;;;;4189583;28;20203;-76
2024/02/11 10:30:12;;;;;;;36.00;17.67;;;9.90;99.90;;;;;;4188393;28;20198;-75
2024/02/11 10:32:15;;;;;;;37.37;15.93;;;9.90;99.90;;;;;;4185262;28;20226;-77
2024/02/11 10:34:19;;;;;;;36.60;17.07;;;9.90;99.90;;;;;;4187435;28;20234;-78